地図

経路データ

SID SEASON NUMBER BASIN SUBBASIN NAME ISO_TIME NATURE LAT LON WMO_WIND WMO_PRES WMO_AGENCY TRACK_TYPE DIST2LAND LANDFALL IFLAG USA_AGENCY USA_ATCF_ID USA_LAT USA_LON USA_RECORD USA_STATUS USA_WIND USA_PRES USA_SSHS USA_R34_NE USA_R34_SE USA_R34_SW USA_R34_NW USA_R50_NE USA_R50_SE USA_R50_SW USA_R50_NW USA_R64_NE USA_R64_SE USA_R64_SW USA_R64_NW USA_POCI USA_ROCI USA_RMW USA_EYE TOKYO_LAT TOKYO_LON TOKYO_GRADE TOKYO_WIND TOKYO_PRES TOKYO_R50_DIR TOKYO_R50_LONG TOKYO_R50_SHORT TOKYO_R30_DIR TOKYO_R30_LONG TOKYO_R30_SHORT TOKYO_LAND CMA_LAT CMA_LON CMA_CAT CMA_WIND CMA_PRES HKO_LAT HKO_LON HKO_CAT HKO_WIND HKO_PRES NEWDELHI_LAT NEWDELHI_LON NEWDELHI_GRADE NEWDELHI_WIND NEWDELHI_PRES NEWDELHI_CI NEWDELHI_DP NEWDELHI_POCI REUNION_LAT REUNION_LON REUNION_TYPE REUNION_WIND REUNION_PRES REUNION_TNUM REUNION_CI REUNION_RMW REUNION_R34_NE REUNION_R34_SE REUNION_R34_SW REUNION_R34_NW REUNION_R50_NE REUNION_R50_SE REUNION_R50_SW REUNION_R50_NW REUNION_R64_NE REUNION_R64_SE REUNION_R64_SW REUNION_R64_NW BOM_LAT BOM_LON BOM_TYPE BOM_WIND BOM_PRES BOM_TNUM BOM_CI BOM_RMW BOM_R34_NE BOM_R34_SE BOM_R34_SW BOM_R34_NW BOM_R50_NE BOM_R50_SE BOM_R50_SW BOM_R50_NW BOM_R64_NE BOM_R64_SE BOM_R64_SW BOM_R64_NW BOM_ROCI BOM_POCI BOM_EYE BOM_POS_METHOD BOM_PRES_METHOD NADI_LAT NADI_LON NADI_CAT NADI_WIND NADI_PRES WELLINGTON_LAT WELLINGTON_LON WELLINGTON_WIND WELLINGTON_PRES DS824_LAT DS824_LON DS824_STAGE DS824_WIND DS824_PRES TD9636_LAT TD9636_LON TD9636_STAGE TD9636_WIND TD9636_PRES TD9635_LAT TD9635_LON TD9635_WIND TD9635_PRES TD9635_ROCI NEUMANN_LAT NEUMANN_LON NEUMANN_CLASS NEUMANN_WIND NEUMANN_PRES MLC_LAT MLC_LON MLC_CLASS MLC_WIND MLC_PRES USA_GUST BOM_GUST BOM_GUST_PER REUNION_GUST REUNION_GUST_PER USA_SEAHGT USA_SEARAD_NE USA_SEARAD_SE USA_SEARAD_SW USA_SEARAD_NW STORM_SPEED STORM_DIR
1952092S14164 1952 22 SP MM NOT_NAMED 1952-04-01 00:00:00 TS -14.3000 164.000 main 274 236 O________OO___ jtwc_sh SH211952 -14.3000 164.000 -1 -14.3000 164.000 TC -14.3000 164.000 2 11 147
1952092S14164 1952 22 SP MM NOT_NAMED 1952-04-01 03:00:00 TS -14.7556 164.304 main 236 209 P________PP___ SH211952 -14.7551 164.317 -1 -14.7551 164.317 TC -14.7566 164.278 2 11 148
1952092S14164 1952 22 SP MM NOT_NAMED 1952-04-01 06:00:00 TS -15.2002 164.582 main 209 193 O________OP___ jtwc_sh SH211952 -15.2000 164.600 -1 -15.2000 164.600 TC -15.2005 164.546 2 10 151
1952092S14164 1952 22 SP MM NOT_NAMED 1952-04-01 09:00:00 TS -15.6213 164.812 main 194 180 P________PP___ SH211952 -15.6224 164.823 -1 -15.6224 164.823 TC -15.6191 164.791 2 9 153
1952092S14164 1952 22 SP MM NOT_NAMED 1952-04-01 12:00:00 TS -16.0000 165.000 main 184 178 O________OO___ jtwc_sh SH211952 -16.0000 165.000 -1 -16.0000 165.000 TC -16.0000 165.000 2 8 154
1952092S14164 1952 22 SP MM NOT_NAMED 1952-04-01 15:00:00 TS -16.3219 165.161 main 180 180 P________PP___ SH211952 -16.3150 165.158 -1 -16.3150 165.158 TC -16.3357 165.167 2 7 155
1952092S14164 1952 22 SP MM NOT_NAMED 1952-04-01 18:00:00 TS -16.6124 165.303 main 189 186 O________OP___ jtwc_sh SH211952 -16.6000 165.300 -1 -16.6000 165.300 TC -16.6372 165.308 2 6 155
1952092S14164 1952 22 SP MM NOT_NAMED 1952-04-01 21:00:00 TS -16.9067 165.444 main 200 192 P________PP___ SH211952 -16.9000 165.443 -1 -16.9000 165.443 TC -16.9201 165.445 2 7 154
1952092S14164 1952 22 SP MM NOT_NAMED 1952-04-02 00:00:00 TS -17.2000 165.600 main 201 200 O________OO___ jtwc_sh SH211952 -17.2000 165.600 -1 -17.2000 165.600 TC -17.2000 165.600 2 7 151
1952092S14164 1952 22 SP MM NOT_NAMED 1952-04-02 03:00:00 TS -17.5040 165.790 main 203 200 P________PP___ SH211952 -17.5000 165.785 -1 -17.5000 165.785 TC -17.5122 165.799 2 7 147
1952092S14164 1952 22 SP MM NOT_NAMED 1952-04-02 06:00:00 TS -17.8075 166.007 main 208 208 O________OP___ jtwc_sh SH211952 -17.8000 166.000 -1 -17.8000 166.000 TC -17.8225 166.020 2 8 144
1952092S14164 1952 22 SP MM NOT_NAMED 1952-04-02 09:00:00 TS -18.1122 166.252 main 210 210 P________PP___ SH211952 -18.1075 166.250 -1 -18.1075 166.250 TC -18.1215 166.256 2 8 142
1952092S14164 1952 22 SP MM NOT_NAMED 1952-04-02 12:00:00 TS -18.4000 166.500 main 227 227 O________OO___ jtwc_sh SH211952 -18.4000 166.500 -1 -18.4000 166.500 TC -18.4000 166.500 2 7 143
1952092S14164 1952 22 SP MM NOT_NAMED 1952-04-02 15:00:00 TS -18.6626 166.692 main 249 246 P________PP___ SH211952 -18.6649 166.693 -1 -18.6649 166.693 TC -18.6580 166.691 2 6 143
1952092S14164 1952 22 SP MM NOT_NAMED 1952-04-02 18:00:00 TS -18.8979 166.899 main 265 265 O________OP___ jtwc_sh SH211952 -18.9000 166.900 -1 -18.9000 166.900 TC -18.8938 166.896 2 6 136
1952092S14164 1952 22 SP MM NOT_NAMED 1952-04-02 21:00:00 TS -19.1074 167.149 main 274 274 P________PP___ SH211952 -19.1073 167.148 -1 -19.1073 167.148 TC -19.1077 167.153 2 7 125
1952092S14164 1952 22 SP MM NOT_NAMED 1952-04-03 00:00:00 TS -19.3000 167.500 main 286 282 O________OO___ jtwc_sh SH211952 -19.3000 167.500 -1 -19.3000 167.500 TC -19.3000 167.500 2 9 117
1952092S14164 1952 22 SP MM NOT_NAMED 1952-04-03 03:00:00 TS -19.5184 167.998 main 297 293 P________PP___ SH211952 -19.5150 168.005 -1 -19.5150 168.005 TC -19.5250 167.984 2 11 112
1952092S14164 1952 22 SP MM NOT_NAMED 1952-04-03 06:00:00 TS -19.7070 168.586 main 319 319 O________OP___ jtwc_sh SH211952 -19.7000 168.600 -1 -19.7000 168.600 TC -19.7209 168.558 2 12 107
1952092S14164 1952 22 SP MM NOT_NAMED 1952-04-03 09:00:00 TS -19.8537 169.193 main 342 342 P________PP___ SH211952 -19.8524 169.200 -1 -19.8524 169.200 TC -19.8562 169.178 2 12 100
1952092S14164 1952 22 SP MM NOT_NAMED 1952-04-03 12:00:00 TS -19.9000 169.800 main 387 387 O________OO___ jtwc_sh SH211952 -19.9000 169.800 -1 -19.9000 169.800 TC -19.9000 169.800 2 11 87
1952092S14164 1952 22 SP MM NOT_NAMED 1952-04-03 15:00:00 TS -19.7999 170.366 main 443 443 P________PP___ SH211952 -19.7948 170.358 -1 -19.7948 170.358 TC -19.8102 170.383 2 11 75
1952092S14164 1952 22 SP MM NOT_NAMED 1952-04-03 18:00:00 TS -19.6108 170.918 main 469 469 O________OP___ jtwc_sh SH211952 -19.6000 170.900 -1 -19.6000 170.900 TC -19.6324 170.955 2 11 69
1952092S14164 1952 22 SP MM NOT_NAMED 1952-04-03 21:00:00 TS -19.4045 171.481 main 501 501 P________PP___ SH211952 -19.4000 171.473 -1 -19.4000 171.473 TC -19.4134 171.499 2 11 68
1952092S14164 1952 22 SP MM NOT_NAMED 1952-04-04 00:00:00 TS -19.2000 172.000 main 531 518 O________OO___ jtwc_sh SH211952 -19.2000 172.000 -1 -19.2000 172.000 TC -19.2000 172.000 2 10 68
1952092S14164 1952 22 SP MM NOT_NAMED 1952-04-04 03:00:00 TS -19.0389 172.422 main 518 474 P________PP___ SH211952 -19.0348 172.422 -1 -19.0348 172.422 TC -19.0473 172.422 2 8 69
1952092S14164 1952 22 SP MM NOT_NAMED 1952-04-04 06:00:00 TS -18.9037 172.802 main 474 431 O________OP___ jtwc_sh SH211952 -18.9000 172.800 -1 -18.9000 172.800 TC -18.9110 172.807 2 8 71
1952092S14164 1952 22 SP MM NOT_NAMED 1952-04-04 09:00:00 TS -18.7929 173.181 main 431 387 P________PP___ SH211952 -18.7923 173.177 -1 -18.7923 173.177 TC -18.7942 173.188 2 8 75
1952092S14164 1952 22 SP MM NOT_NAMED 1952-04-04 12:00:00 TS -18.7000 173.600 main 387 334 O________OO___ jtwc_sh SH211952 -18.7000 173.600 -1 -18.7000 173.600 TC -18.7000 173.600 2 9 77
1952092S14164 1952 22 SP MM NOT_NAMED 1952-04-04 15:00:00 TS -18.5903 174.132 main 334 269 P________PP___ SH211952 -18.5851 174.135 -1 -18.5851 174.135 TC -18.6006 174.126 2 11 80
1952092S14164 1952 22 SP MM NOT_NAMED 1952-04-04 18:00:00 TS -18.5087 174.693 main 269 218 O________OP___ jtwc_sh SH211952 -18.5000 174.700 -1 -18.5000 174.700 TC -18.5260 174.680 2 10 84
1952092S14164 1952 22 SP MM NOT_NAMED 1952-04-04 21:00:00 TS -18.4760 175.227 main 218 168 P________PP___ SH211952 -18.4700 175.230 -1 -18.4700 175.230 TC -18.4882 175.220 2 10 89
1952092S14164 1952 22 SP MM NOT_NAMED 1952-04-05 00:00:00 TS -18.5000 175.700 main 168 134 O________OO___ jtwc_sh SH211952 -18.5000 175.700 -1 -18.5000 175.700 TC -18.5000 175.700 2 8 97
1952092S14164 1952 22 SP MM NOT_NAMED 1952-04-05 03:00:00 TS -18.5776 176.086 main 134 115 P________PP___ SH211952 -18.5774 176.087 -1 -18.5774 176.087 TC -18.5781 176.084 2 7 107
1952092S14164 1952 22 SP MM NOT_NAMED 1952-04-05 06:00:00 TS -18.7014 176.401 main 115 100 O________OP___ jtwc_sh SH211952 -18.7000 176.400 -1 -18.7000 176.400 TC -18.7043 176.404 2 6 116
1952092S14164 1952 22 SP MM NOT_NAMED 1952-04-05 09:00:00 TS -18.8511 176.672 main 109 103 P________PP___ SH211952 -18.8499 176.672 -1 -18.8499 176.672 TC -18.8533 176.672 2 6 122
1952092S14164 1952 22 SP MM NOT_NAMED 1952-04-05 12:00:00 TS -19.0000 176.900 main 109 105 O________OO___ jtwc_sh SH211952 -19.0000 176.900 -1 -19.0000 176.900 TC -19.0000 176.900 2 5 122
1952092S14164 1952 22 SP MM NOT_NAMED 1952-04-05 15:00:00 TS -19.1131 177.110 main 113 109 P________PP___ SH211952 -19.1075 177.115 -1 -19.1075 177.115 TC -19.1243 177.099 2 4 119
1952092S14164 1952 22 SP MM NOT_NAMED 1952-04-05 18:00:00 TS -19.2093 177.293 main 116 113 O________OP___ jtwc_sh SH211952 -19.2000 177.300 -1 -19.2000 177.300 TC -19.2278 177.278 2 4 121
1952092S14164 1952 22 SP MM NOT_NAMED 1952-04-05 21:00:00 TS -19.3041 177.452 main 119 119 P________PP___ SH211952 -19.2975 177.457 -1 -19.2975 177.457 TC -19.3174 177.442 2 3 123
1952092S14164 1952 22 SP MM NOT_NAMED 1952-04-06 00:00:00 TS -19.4000 177.600 main 127 O________OO___ jtwc_sh SH211952 -19.4000 177.600 -1 -19.4000 177.600 TC -19.4000 177.600 2 3 125

デジタル台風データ・検索

IBTrACS Databaseについて

本データベースは、米国NOAAが公開する1842年以降の世界の熱帯低気圧のベストトラックデータアーカイブInternational Best Track Archive for Climate Stewardship (IBTrACS)を、ウェブで閲覧しやすい形式に変換したものです。

最終更新日:2021-12-03